Time;durP1;ratioP1;P1;durP2;ratioP2;P2;SDS_P1;SDS_P2;PMS_P1;PMS_P2;Temp;Humidity;BMP_temperature;BMP_pressure;BME280_temperature;BME280_humidity;BME280_pressure;Samples;Min_cycle;Max_cycle;Signal;HPM_P1;HPM_P2
2023/05/15 00:02:21;;;;;;;2.27;1.47;;;11.20;99.90;;;;;;4896777;29;20201;-52
2023/05/15 00:04:48;;;;;;;0.93;0.93;;;11.20;99.90;;;;;;4893918;29;20210;-52
2023/05/15 00:07:15;;;;;;;0.77;0.77;;;11.20;99.90;;;;;;4896304;29;20275;-52
2023/05/15 00:09:43;;;;;;;1.30;1.30;;;11.20;99.90;;;;;;4898168;29;20243;-52
2023/05/15 00:12:10;;;;;;;1.37;1.03;;;11.20;99.90;;;;;;4896067;29;20676;-53
2023/05/15 00:14:37;;;;;;;0.90;0.90;;;11.20;99.90;;;;;;4896634;29;20214;-52
2023/05/15 00:17:04;;;;;;;1.10;1.10;;;11.20;99.90;;;;;;4899133;29;20590;-52
2023/05/15 00:19:32;;;;;;;1.00;1.00;;;11.20;99.90;;;;;;4899104;29;20754;-52
2023/05/15 00:21:58;;;;;;;0.90;0.90;;;11.20;99.90;;;;;;4896946;29;20210;-52
2023/05/15 00:24:25;;;;;;;1.23;1.23;;;11.20;99.90;;;;;;4891863;29;20845;-52
2023/05/15 00:26:54;;;;;;;1.77;1.67;;;11.10;99.90;;;;;;4896133;29;20289;-52
2023/05/15 00:29:21;;;;;;;1.47;1.37;;;11.10;99.90;;;;;;4898667;29;20221;-52
2023/05/15 00:31:47;;;;;;;1.37;1.37;;;11.10;99.90;;;;;;4898801;29;20214;-52
2023/05/15 00:34:14;;;;;;;1.87;1.70;;;11.10;99.90;;;;;;4898404;29;20257;-52
2023/05/15 00:36:41;;;;;;;1.53;1.30;;;11.10;99.90;;;;;;4894542;29;20210;-52
2023/05/15 00:39:08;;;;;;;1.00;1.00;;;11.10;99.90;;;;;;4898347;29;20202;-52
2023/05/15 00:41:36;;;;;;;1.47;1.20;;;11.10;99.90;;;;;;4898688;29;20218;-52
2023/05/15 00:44:06;;;;;;;1.20;1.20;;;11.10;99.90;;;;;;4898395;29;20233;-52
2023/05/15 00:46:36;;;;;;;1.60;1.50;;;11.10;99.90;;;;;;4895541;29;20207;-52
2023/05/15 00:49:04;;;;;;;1.20;0.83;;;11.00;99.90;;;;;;4897829;29;20287;-52
2023/05/15 00:51:31;;;;;;;3.80;2.60;;;11.00;99.90;;;;;;4898498;29;20209;-52
2023/05/15 00:53:59;;;;;;;1.33;1.07;;;11.10;99.90;;;;;;4898205;29;20297;-52
2023/05/15 00:56:27;;;;;;;1.07;1.07;;;11.00;99.90;;;;;;4895996;29;20669;-51
2023/05/15 00:58:58;;;;;;;2.37;1.03;;;11.00;99.90;;;;;;4898172;29;20206;-52
2023/05/15 01:01:27;;;;;;;1.00;1.00;;;11.00;99.90;;;;;;4898383;29;20265;-52
2023/05/15 01:03:54;;;;;;;1.30;1.20;;;11.00;99.90;;;;;;4890866;29;20230;-52
2023/05/15 01:06:21;;;;;;;0.93;0.93;;;11.00;99.90;;;;;;4897299;29;20697;-52
2023/05/15 01:08:50;;;;;;;1.23;1.20;;;11.10;99.90;;;;;;4898058;29;20257;-52
2023/05/15 01:11:17;;;;;;;1.33;1.13;;;11.10;99.90;;;;;;4895387;29;20225;-52
2023/05/15 01:13:45;;;;;;;1.83;1.03;;;11.10;99.90;;;;;;4895080;29;20290;-52
2023/05/15 01:16:11;;;;;;;1.20;1.20;;;11.10;99.90;;;;;;4893541;29;20235;-52
2023/05/15 01:18:40;;;;;;;1.07;1.07;;;11.10;99.90;;;;;;4897206;29;20293;-52
2023/05/15 01:21:33;;;;;;;1.00;1.00;;;11.10;99.90;;;;;;4898441;29;20500;-52
2023/05/15 01:24:16;;;;;;;0.93;0.73;;;11.10;99.90;;;;;;4897569;29;20234;-52
2023/05/15 01:27:15;;;;;;;0.63;0.63;;;11.10;99.90;;;;;;4889719;29;20205;-52
2023/05/15 01:29:51;;;;;;;0.40;0.40;;;11.10;99.90;;;;;;4894641;29;20276;-52
2023/05/15 01:32:23;;;;;;;0.57;0.57;;;11.10;99.90;;;;;;4896326;29;20267;-52
2023/05/15 01:34:57;;;;;;;0.80;0.53;;;11.10;99.90;;;;;;4897485;29;20206;-52
2023/05/15 01:37:27;;;;;;;0.60;0.60;;;11.10;99.90;;;;;;4895131;29;20242;-52
2023/05/15 01:40:00;;;;;;;1.07;0.60;;;11.10;99.90;;;;;;4897752;29;20206;-52
2023/05/15 01:42:33;;;;;;;1.13;1.13;;;11.10;99.90;;;;;;4897393;29;20657;-52
2023/05/15 01:45:04;;;;;;;0.87;0.87;;;11.10;99.90;;;;;;4897883;29;20269;-52
2023/05/15 01:47:39;;;;;;;0.90;0.90;;;11.00;99.90;;;;;;4891816;29;20646;-52
2023/05/15 01:50:09;;;;;;;2.10;0.87;;;11.00;99.90;;;;;;4897393;29;20218;-52
2023/05/15 01:52:41;;;;;;;1.37;0.93;;;11.00;99.90;;;;;;4896678;29;20234;-52
2023/05/15 01:55:09;;;;;;;1.00;1.00;;;11.00;99.90;;;;;;4897726;29;20205;-52
2023/05/15 01:57:38;;;;;;;1.00;1.00;;;11.00;99.90;;;;;;4895912;29;20214;-52
2023/05/15 02:00:08;;;;;;;0.70;0.70;;;11.00;99.90;;;;;;4897400;29;20196;-52
2023/05/15 02:02:39;;;;;;;0.80;0.80;;;11.10;99.90;;;;;;4893482;29;20768;-52
2023/05/15 02:05:07;;;;;;;0.90;0.90;;;11.10;99.90;;;;;;4895207;29;20209;-52
2023/05/15 02:07:38;;;;;;;1.60;0.80;;;11.10;99.90;;;;;;4896301;29;20248;-52
2023/05/15 02:10:06;;;;;;;1.20;1.20;;;11.10;99.90;;;;;;4904191;29;20278;-52
2023/05/15 02:12:37;;;;;;;0.80;0.80;;;11.10;99.90;;;;;;4915799;29;20237;-52
2023/05/15 02:15:06;;;;;;;1.13;1.13;;;11.10;99.90;;;;;;4905764;29;20583;-52
2023/05/15 02:17:33;;;;;;;1.13;1.03;;;11.00;99.90;;;;;;4894591;29;20210;-52
2023/05/15 02:20:00;;;;;;;0.90;0.90;;;11.00;99.90;;;;;;4895671;29;20205;-52
2023/05/15 02:22:27;;;;;;;1.00;1.00;;;11.00;99.90;;;;;;4896717;29;20209;-52
2023/05/15 02:24:54;;;;;;;0.67;0.67;;;10.90;99.90;;;;;;4896225;29;20265;-52
2023/05/15 02:27:25;;;;;;;0.60;0.60;;;10.90;99.90;;;;;;4892101;29;20209;-52
2023/05/15 02:30:06;;;;;;;0.50;0.50;;;10.90;99.90;;;;;;4893813;29;20309;-52
2023/05/15 02:32:43;;;;;;;0.90;0.90;;;10.90;99.90;;;;;;4888679;29;20221;-52
2023/05/15 02:35:19;;;;;;;0.57;0.50;;;10.80;99.90;;;;;;4896673;29;20680;-52
2023/05/15 02:37:49;;;;;;;0.53;0.53;;;10.70;99.90;;;;;;4895605;29;20615;-52
2023/05/15 02:40:16;;;;;;;0.63;0.63;;;10.80;99.90;;;;;;4896601;29;20199;-52
2023/05/15 02:42:45;;;;;;;0.50;0.50;;;10.80;99.90;;;;;;4896493;29;20289;-52
2023/05/15 02:45:12;;;;;;;0.70;0.70;;;10.70;99.90;;;;;;4889907;29;20728;-52
2023/05/15 02:47:42;;;;;;;2.37;0.70;;;10.70;99.90;;;;;;4894994;29;20232;-52
2023/05/15 02:50:10;;;;;;;0.60;0.60;;;10.70;99.90;;;;;;4895586;29;20225;-52
2023/05/15 02:52:39;;;;;;;0.77;0.77;;;10.70;99.90;;;;;;4894687;29;20227;-52
2023/05/15 02:55:07;;;;;;;0.40;0.40;;;10.80;99.90;;;;;;4892454;29;20248;-52
2023/05/15 02:57:34;;;;;;;0.83;0.70;;;10.70;99.90;;;;;;4895182;29;20270;-52
2023/05/15 03:00:04;;;;;;;1.70;0.60;;;10.60;99.90;;;;;;4894716;29;20203;-52
2023/05/15 03:02:31;;;;;;;0.73;0.60;;;10.60;99.90;;;;;;4889356;29;20274;-52
2023/05/15 03:04:59;;;;;;;0.63;0.63;;;10.70;99.90;;;;;;4896488;29;20209;-52
2023/05/15 03:07:26;;;;;;;4.20;0.57;;;10.70;99.90;;;;;;4898728;29;20202;-52
2023/05/15 03:09:53;;;;;;;0.73;0.73;;;10.60;99.90;;;;;;4894578;29;20226;-52
2023/05/15 03:12:20;;;;;;;0.43;0.43;;;10.60;99.90;;;;;;4895098;29;20270;-52
2023/05/15 03:14:47;;;;;;;0.50;0.50;;;10.60;99.90;;;;;;4893199;29;20209;-52
2023/05/15 03:17:26;;;;;;;0.50;0.50;;;10.60;99.90;;;;;;4889574;29;20859;-52
2023/05/15 03:19:53;;;;;;;2.73;0.50;;;10.60;99.90;;;;;;4901922;29;20622;-51
2023/05/15 03:22:22;;;;;;;0.70;0.40;;;10.60;99.90;;;;;;4898967;29;20214;-52
2023/05/15 03:24:49;;;;;;;0.57;0.50;;;10.60;99.90;;;;;;4898076;29;20222;-52
2023/05/15 03:27:16;;;;;;;0.90;0.67;;;10.60;99.90;;;;;;4897714;29;20214;-52
2023/05/15 03:29:43;;;;;;;3.33;0.90;;;10.60;99.90;;;;;;4898269;29;20313;-52
2023/05/15 03:32:10;;;;;;;0.70;0.70;;;10.60;99.90;;;;;;4891274;29;20210;-52
2023/05/15 03:34:37;;;;;;;1.40;0.70;;;10.60;99.90;;;;;;4895925;29;20221;-52
2023/05/15 03:37:05;;;;;;;0.93;0.93;;;10.60;99.90;;;;;;4904560;29;20644;-52
2023/05/15 03:39:33;;;;;;;1.03;0.80;;;10.60;99.90;;;;;;4898711;29;20215;-52
2023/05/15 03:42:00;;;;;;;0.77;0.70;;;10.60;99.90;;;;;;4896544;29;20210;-52
2023/05/15 03:44:28;;;;;;;0.60;0.50;;;10.60;99.90;;;;;;4897711;29;20229;-52
2023/05/15 03:46:55;;;;;;;0.60;0.60;;;10.70;99.90;;;;;;4893951;29;20214;-52
2023/05/15 03:49:22;;;;;;;0.63;0.60;;;10.60;99.90;;;;;;4893301;29;20266;-52
2023/05/15 03:51:49;;;;;;;0.93;0.70;;;10.60;99.90;;;;;;4894627;29;20229;-52
2023/05/15 03:54:16;;;;;;;0.93;0.70;;;10.60;99.90;;;;;;4897348;29;20605;-52
2023/05/15 03:56:44;;;;;;;3.10;1.07;;;10.60;99.90;;;;;;4898670;29;20582;-51
2023/05/15 03:59:11;;;;;;;1.70;0.50;;;10.60;99.90;;;;;;4896260;29;20261;-52
2023/05/15 04:01:38;;;;;;;0.60;0.60;;;10.50;99.90;;;;;;4898497;29;20205;-51
2023/05/15 04:04:05;;;;;;;1.07;0.60;;;10.50;99.90;;;;;;4899047;29;20285;-51
2023/05/15 04:06:32;;;;;;;0.90;0.87;;;10.50;99.90;;;;;;4899279;29;20681;-51
2023/05/15 04:08:59;;;;;;;1.23;0.50;;;10.60;99.90;;;;;;4897707;29;20211;-52
2023/05/15 04:11:27;;;;;;;1.00;0.87;;;10.50;99.90;;;;;;4899273;29;20221;-51
2023/05/15 04:13:55;;;;;;;0.60;0.60;;;10.50;99.90;;;;;;4898263;29;20329;-52
2023/05/15 04:16:22;;;;;;;1.93;0.53;;;10.50;99.90;;;;;;4899629;29;20231;-52
2023/05/15 04:18:49;;;;;;;0.40;0.40;;;10.50;99.90;;;;;;4897970;29;20265;-52
2023/05/15 04:21:17;;;;;;;0.40;0.40;;;10.50;99.90;;;;;;4894271;29;20555;-52
2023/05/15 04:23:44;;;;;;;2.00;0.60;;;10.50;99.90;;;;;;4899012;29;20288;-52
2023/05/15 04:26:11;;;;;;;0.70;0.60;;;10.50;99.90;;;;;;4894509;29;20217;-52
2023/05/15 04:28:37;;;;;;;0.70;0.70;;;10.50;99.90;;;;;;4895221;29;20207;-51
2023/05/15 04:31:06;;;;;;;2.10;0.50;;;10.60;99.90;;;;;;4895661;29;20293;-52
2023/05/15 04:33:33;;;;;;;1.27;0.40;;;10.60;99.90;;;;;;4890024;29;20233;-52
2023/05/15 04:36:00;;;;;;;0.47;0.47;;;10.60;99.90;;;;;;4898381;29;20269;-52
2023/05/15 04:38:27;;;;;;;0.60;0.60;;;10.60;99.90;;;;;;4898993;29;20298;-52
2023/05/15 04:40:54;;;;;;;1.07;0.80;;;10.70;99.90;;;;;;4891705;29;20700;-51
2023/05/15 04:43:21;;;;;;;0.50;0.50;;;10.70;99.90;;;;;;4886247;29;20223;-52
2023/05/15 04:45:48;;;;;;;2.37;0.63;;;10.80;99.90;;;;;;4894668;29;20206;-52
2023/05/15 04:48:18;;;;;;;1.00;0.70;;;10.80;99.90;;;;;;4894351;29;20763;-52
2023/05/15 04:50:44;;;;;;;0.70;0.70;;;10.80;99.90;;;;;;4895704;29;20313;-51
2023/05/15 04:53:11;;;;;;;0.77;0.77;;;10.70;99.90;;;;;;4891707;29;20289;-52
2023/05/15 04:55:38;;;;;;;1.50;0.50;;;10.70;99.90;;;;;;4893455;29;20748;-52
2023/05/15 04:58:05;;;;;;;1.70;0.70;;;10.80;99.90;;;;;;4891811;29;20218;-52
2023/05/15 05:00:32;;;;;;;0.87;0.73;;;10.80;99.90;;;;;;4887556;29;20212;-52
2023/05/15 05:02:59;;;;;;;0.60;0.60;;;10.80;99.90;;;;;;4894114;29;20226;-52
2023/05/15 05:05:28;;;;;;;1.40;0.60;;;10.90;99.90;;;;;;4896162;29;20211;-52
2023/05/15 05:07:55;;;;;;;3.33;0.83;;;10.90;99.90;;;;;;4897053;29;20360;-52
2023/05/15 05:10:21;;;;;;;0.80;0.80;;;10.90;99.90;;;;;;4899947;29;20236;-52
2023/05/15 05:12:48;;;;;;;0.63;0.63;;;10.90;99.90;;;;;;4898654;29;20803;-52
2023/05/15 05:15:15;;;;;;;0.53;0.50;;;11.00;99.90;;;;;;4889649;29;20267;-52
2023/05/15 05:17:42;;;;;;;0.80;0.60;;;11.00;99.90;;;;;;4891856;29;20679;-51
2023/05/15 05:20:12;;;;;;;0.40;0.40;;;11.00;99.90;;;;;;4896694;29;20213;-52
2023/05/15 05:22:41;;;;;;;2.90;0.70;;;11.10;99.90;;;;;;4931119;23;20239;-59
2023/05/15 05:25:08;;;;;;;0.70;0.70;;;11.10;99.90;;;;;;4932753;29;20255;-59
2023/05/15 05:27:39;;;;;;;1.03;0.60;;;11.20;99.90;;;;;;4929702;29;20208;-58
2023/05/15 05:30:07;;;;;;;2.23;1.03;;;11.30;99.90;;;;;;4931695;29;20212;-58
2023/05/15 05:32:37;;;;;;;0.80;0.80;;;11.40;99.90;;;;;;4929911;29;20229;-58
2023/05/15 05:35:05;;;;;;;0.50;0.50;;;11.40;99.90;;;;;;4933121;29;20213;-59
2023/05/15 05:37:35;;;;;;;1.20;1.13;;;11.40;99.90;;;;;;4932830;29;20291;-59
2023/05/15 05:40:05;;;;;;;0.77;0.77;;;11.50;99.90;;;;;;4928306;29;20255;-59
2023/05/15 05:42:32;;;;;;;0.60;0.60;;;11.50;99.90;;;;;;4928648;29;20558;-63
2023/05/15 05:44:59;;;;;;;0.77;0.77;;;11.60;99.90;;;;;;4926874;29;20277;-65
2023/05/15 05:47:34;;;;;;;0.50;0.50;;;11.60;99.90;;;;;;5087636;27;21086;-66
2023/05/15 05:50:02;;;;;;;1.20;0.40;;;11.70;99.90;;;;;;5081968;28;20580;-66
2023/05/15 05:52:29;;;;;;;0.53;0.53;;;11.70;99.90;;;;;;5064302;28;20216;-59
2023/05/15 05:54:55;;;;;;;0.80;0.80;;;11.70;99.90;;;;;;5061426;28;20292;-59
2023/05/15 05:57:22;;;;;;;0.60;0.60;;;11.80;99.90;;;;;;5056147;28;20372;-59
2023/05/15 05:59:49;;;;;;;0.47;0.47;;;11.80;99.90;;;;;;5062333;28;20576;-61
2023/05/15 06:02:16;;;;;;;2.27;0.77;;;11.80;99.90;;;;;;5067873;28;20700;-60
2023/05/15 06:04:45;;;;;;;1.70;0.80;;;11.70;99.90;;;;;;5061639;28;20250;-64
2023/05/15 06:07:13;;;;;;;0.50;0.50;;;11.60;99.90;;;;;;5062703;28;20278;-62
2023/05/15 06:09:40;;;;;;;1.13;0.57;;;11.70;99.90;;;;;;5065751;28;20238;-66
2023/05/15 06:12:08;;;;;;;1.80;0.80;;;11.70;99.90;;;;;;5066594;28;20224;-66
2023/05/15 06:14:35;;;;;;;0.97;0.70;;;11.70;99.90;;;;;;5059252;28;20204;-64
2023/05/15 06:17:03;;;;;;;0.87;0.87;;;11.70;99.90;;;;;;5066759;28;20701;-64
2023/05/15 06:19:30;;;;;;;0.60;0.60;;;11.70;99.90;;;;;;5055280;28;20224;-64
2023/05/15 06:21:58;;;;;;;0.70;0.70;;;11.70;99.90;;;;;;5062254;28;20222;-65
2023/05/15 06:24:25;;;;;;;1.07;0.60;;;11.70;99.90;;;;;;5059890;28;20226;-62
2023/05/15 06:26:53;;;;;;;0.60;0.60;;;11.70;99.90;;;;;;5061654;28;20253;-63
2023/05/15 06:29:21;;;;;;;1.13;0.40;;;11.70;99.90;;;;;;5066644;28;20204;-62
2023/05/15 06:31:48;;;;;;;1.07;0.50;;;11.70;99.90;;;;;;5064739;28;20221;-64
2023/05/15 06:34:15;;;;;;;0.40;0.40;;;11.80;99.90;;;;;;5065448;28;20289;-63
2023/05/15 06:36:41;;;;;;;0.70;0.70;;;11.90;99.90;;;;;;5064874;28;20645;-64
2023/05/15 06:39:10;;;;;;;0.50;0.50;;;11.90;99.90;;;;;;5064715;28;20201;-64
2023/05/15 06:41:37;;;;;;;1.00;0.80;;;12.00;99.90;;;;;;5062562;28;20787;-64
2023/05/15 06:44:05;;;;;;;0.90;0.70;;;12.10;99.90;;;;;;5058406;28;20210;-63
2023/05/15 06:46:31;;;;;;;2.30;0.37;;;12.10;99.90;;;;;;5063288;28;20205;-64
2023/05/15 06:48:58;;;;;;;0.93;0.60;;;12.20;99.90;;;;;;5061569;28;20251;-64
2023/05/15 06:51:26;;;;;;;0.60;0.60;;;12.30;99.90;;;;;;5072819;28;20193;-56
2023/05/15 06:53:52;;;;;;;1.07;0.80;;;12.30;99.90;;;;;;5078163;28;20185;-55
2023/05/15 06:56:21;;;;;;;0.50;0.50;;;12.40;99.90;;;;;;5085990;28;20246;-56
2023/05/15 06:58:48;;;;;;;0.57;0.57;;;12.30;99.90;;;;;;5070495;28;20201;-55
2023/05/15 07:01:15;;;;;;;1.50;0.50;;;12.30;99.90;;;;;;5061420;28;20274;-58
2023/05/15 07:03:42;;;;;;;3.33;0.50;;;12.30;99.90;;;;;;5064020;28;20201;-56
2023/05/15 07:06:10;;;;;;;0.50;0.40;;;12.20;99.90;;;;;;5063418;28;20206;-56
2023/05/15 07:08:37;;;;;;;0.67;0.60;;;12.10;99.90;;;;;;5067058;28;20231;-56
2023/05/15 07:11:04;;;;;;;0.60;0.53;;;12.00;99.90;;;;;;5053737;28;20266;-56
2023/05/15 07:13:32;;;;;;;0.53;0.53;;;12.00;99.90;;;;;;5050185;28;20224;-56
2023/05/15 07:15:59;;;;;;;1.13;0.50;;;12.00;99.90;;;;;;5053323;28;20646;-56
2023/05/15 07:18:26;;;;;;;1.33;0.60;;;12.00;99.90;;;;;;5049821;28;20205;-56
2023/05/15 07:20:53;;;;;;;3.07;0.50;;;11.90;99.90;;;;;;5047686;28;20254;-58
2023/05/15 07:23:20;;;;;;;0.87;0.87;;;11.90;99.90;;;;;;5049834;28;20255;-56
2023/05/15 07:25:48;;;;;;;0.97;0.83;;;11.90;99.90;;;;;;5049707;28;20198;-55
2023/05/15 07:28:15;;;;;;;0.63;0.63;;;11.90;99.90;;;;;;5053187;28;20197;-63
2023/05/15 07:30:43;;;;;;;0.73;0.50;;;11.90;99.90;;;;;;5052964;28;20210;-56
2023/05/15 07:33:10;;;;;;;0.80;0.80;;;11.90;99.90;;;;;;5043645;28;20575;-56
2023/05/15 07:35:37;;;;;;;0.80;0.80;;;11.80;99.90;;;;;;5053106;28;20253;-59
2023/05/15 07:38:04;;;;;;;1.57;1.00;;;11.80;99.90;;;;;;5051643;28;20194;-60
2023/05/15 07:40:31;;;;;;;0.47;0.43;;;11.80;99.90;;;;;;5050781;28;20209;-60
2023/05/15 07:42:58;;;;;;;0.63;0.50;;;11.80;99.90;;;;;;5050301;28;20572;-60
2023/05/15 07:45:25;;;;;;;1.67;0.63;;;11.90;99.90;;;;;;5052022;28;20220;-60
2023/05/15 07:47:54;;;;;;;1.00;0.80;;;11.90;99.90;;;;;;5050974;28;20201;-60
2023/05/15 07:50:21;;;;;;;1.50;0.70;;;12.00;99.90;;;;;;5050382;28;20203;-60
2023/05/15 07:52:48;;;;;;;0.67;0.53;;;12.20;99.90;;;;;;5046368;28;20285;-60
2023/05/15 07:55:15;;;;;;;0.57;0.57;;;12.20;99.90;;;;;;5044299;28;20251;-60
2023/05/15 07:57:42;;;;;;;0.50;0.50;;;12.30;99.90;;;;;;5049026;28;20269;-61
2023/05/15 08:00:12;;;;;;;0.90;0.90;;;12.50;99.90;;;;;;5052622;28;20250;-60
2023/05/15 08:02:39;;;;;;;0.40;0.33;;;12.70;99.90;;;;;;5050540;28;20220;-60
2023/05/15 08:05:08;;;;;;;1.10;0.63;;;12.70;99.90;;;;;;5053061;28;20291;-60
2023/05/15 08:07:38;;;;;;;1.23;0.67;;;12.80;99.90;;;;;;5043901;28;20251;-60
2023/05/15 08:10:06;;;;;;;0.60;0.60;;;12.70;99.90;;;;;;5050513;28;20262;-60
2023/05/15 08:12:36;;;;;;;1.40;0.60;;;12.70;99.90;;;;;;5048821;28;20216;-60
2023/05/15 08:15:04;;;;;;;0.80;0.73;;;12.60;99.90;;;;;;5046967;28;20208;-60
2023/05/15 08:17:31;;;;;;;1.63;0.90;;;12.60;99.90;;;;;;5036150;28;20714;-60
2023/05/15 08:19:57;;;;;;;0.80;0.80;;;12.50;99.90;;;;;;5044993;28;20230;-60
2023/05/15 08:22:26;;;;;;;0.50;0.50;;;12.40;99.90;;;;;;5051990;28;20264;-60
2023/05/15 08:24:53;;;;;;;0.57;0.40;;;12.30;99.90;;;;;;5052815;28;20200;-60
2023/05/15 08:27:20;;;;;;;0.40;0.40;;;12.30;99.90;;;;;;5044127;28;20236;-60
2023/05/15 08:29:47;;;;;;;0.50;0.50;;;12.30;99.90;;;;;;5042234;28;20253;-60
2023/05/15 08:32:13;;;;;;;1.50;0.50;;;12.40;99.90;;;;;;5048645;28;20689;-60
2023/05/15 08:34:40;;;;;;;0.40;0.40;;;12.50;99.90;;;;;;5045290;28;20194;-60
2023/05/15 08:37:07;;;;;;;0.50;0.50;;;12.50;99.90;;;;;;5042501;28;20221;-61
2023/05/15 08:39:36;;;;;;;0.60;0.60;;;12.50;99.90;;;;;;5052274;28;20585;-60
2023/05/15 08:42:11;;;;;;;0.50;0.50;;;12.70;99.90;;;;;;5051986;28;20286;-60
2023/05/15 08:44:39;;;;;;;0.83;0.83;;;12.70;99.90;;;;;;5051904;28;20201;-60
2023/05/15 08:47:07;;;;;;;0.40;0.40;;;12.70;99.90;;;;;;5051878;28;20205;-60
2023/05/15 08:49:41;;;;;;;0.40;0.40;;;12.60;99.90;;;;;;5051815;28;20211;-60
2023/05/15 08:52:09;;;;;;;1.37;0.50;;;12.60;99.90;;;;;;5047940;28;20693;-60
2023/05/15 08:54:38;;;;;;;0.60;0.60;;;12.60;99.90;;;;;;5043573;28;20282;-61
2023/05/15 08:57:06;;;;;;;0.50;0.50;;;12.50;99.90;;;;;;5038618;28;20218;-60
2023/05/15 08:59:33;;;;;;;0.50;0.50;;;12.50;99.90;;;;;;5051686;28;20260;-60
2023/05/15 09:02:00;;;;;;;0.90;0.90;;;12.50;99.90;;;;;;5051456;28;20277;-60
2023/05/15 09:04:27;;;;;;;1.17;0.90;;;12.60;99.90;;;;;;5047241;28;20271;-60
2023/05/15 09:06:54;;;;;;;0.87;0.87;;;12.50;99.90;;;;;;5046452;28;20194;-60
2023/05/15 09:09:23;;;;;;;0.70;0.70;;;12.40;99.90;;;;;;5051712;28;20209;-60
2023/05/15 09:11:53;;;;;;;0.70;0.70;;;12.50;99.90;;;;;;5051561;28;20226;-60
2023/05/15 09:14:20;;;;;;;0.83;0.60;;;12.50;99.90;;;;;;5051438;28;20198;-60
2023/05/15 09:16:49;;;;;;;1.63;0.80;;;12.60;99.90;;;;;;5051219;28;20227;-60
2023/05/15 09:19:19;;;;;;;0.50;0.50;;;12.80;99.90;;;;;;5042639;28;20208;-60
2023/05/15 09:21:46;;;;;;;1.00;1.00;;;13.00;99.90;;;;;;5051117;28;20225;-60
2023/05/15 09:24:17;;;;;;;2.70;1.20;;;13.10;99.90;;;;;;5051096;28;20227;-60
2023/05/15 09:26:45;;;;;;;1.00;1.00;;;13.20;99.90;;;;;;5051261;28;20196;-60
2023/05/15 09:29:16;;;;;;;0.70;0.70;;;13.20;99.90;;;;;;5051190;28;20561;-60
2023/05/15 09:31:46;;;;;;;1.30;1.20;;;13.30;99.90;;;;;;5051329;28;20225;-60
2023/05/15 09:34:13;;;;;;;1.10;1.10;;;13.50;99.90;;;;;;5048047;28;20197;-60
2023/05/15 09:36:43;;;;;;;1.60;0.90;;;13.60;99.90;;;;;;5044460;28;20213;-61
2023/05/15 09:39:10;;;;;;;0.97;0.97;;;13.60;99.90;;;;;;5051004;28;20204;-60
2023/05/15 09:41:42;;;;;;;1.00;1.00;;;13.80;99.90;;;;;;5043941;28;20217;-60
2023/05/15 09:44:19;;;;;;;1.10;1.10;;;13.90;99.90;;;;;;5050940;28;20202;-60
2023/05/15 09:46:46;;;;;;;1.00;1.00;;;14.10;99.90;;;;;;5051052;28;20208;-60
2023/05/15 09:49:14;;;;;;;1.07;0.57;;;14.40;99.90;;;;;;5051160;28;20205;-60
2023/05/15 09:51:41;;;;;;;1.33;0.83;;;14.70;99.90;;;;;;5047164;28;20228;-60
2023/05/15 09:54:15;;;;;;;1.07;0.80;;;14.80;99.90;;;;;;5050193;28;20193;-60
2023/05/15 09:56:44;;;;;;;1.07;1.07;;;15.10;99.90;;;;;;5046068;28;20235;-61
2023/05/15 09:59:14;;;;;;;1.10;1.00;;;15.40;99.90;;;;;;5050383;28;20725;-60
2023/05/15 10:01:44;;;;;;;0.73;0.73;;;15.70;99.90;;;;;;5051256;28;20213;-61
2023/05/15 10:04:13;;;;;;;1.03;1.03;;;16.20;99.90;;;;;;5042274;28;20194;-61
2023/05/15 10:06:41;;;;;;;1.07;1.07;;;16.40;99.90;;;;;;5049123;28;20194;-61
2023/05/15 10:09:09;;;;;;;2.50;1.07;;;16.50;99.90;;;;;;5042599;28;20193;-61
2023/05/15 10:11:39;;;;;;;0.80;0.80;;;16.60;99.90;;;;;;5050854;28;20221;-61
2023/05/15 10:14:08;;;;;;;1.10;1.10;;;16.40;99.90;;;;;;5051097;28;20198;-61
2023/05/15 10:16:36;;;;;;;2.20;1.07;;;16.40;99.90;;;;;;5042492;28;20319;-61
2023/05/15 10:19:06;;;;;;;0.80;0.70;;;16.50;99.90;;;;;;5044362;28;20731;-61
2023/05/15 10:21:35;;;;;;;2.80;2.67;;;16.30;99.90;;;;;;5049843;28;20202;-61
2023/05/15 10:24:03;;;;;;;2.20;2.10;;;16.00;99.90;;;;;;5048780;28;20194;-61
2023/05/15 10:26:37;;;;;;;1.03;1.03;;;15.80;99.90;;;;;;5046683;28;20729;-60
2023/05/15 10:29:06;;;;;;;1.43;1.33;;;15.90;99.90;;;;;;5050536;28;20204;-61
2023/05/15 10:31:34;;;;;;;1.10;1.00;;;16.10;99.90;;;;;;5050492;28;20206;-61
2023/05/15 10:34:02;;;;;;;1.63;0.97;;;16.30;99.90;;;;;;5053318;28;20293;-60
2023/05/15 10:36:31;;;;;;;1.03;1.03;;;16.50;99.90;;;;;;5053834;28;20194;-61
2023/05/15 10:38:59;;;;;;;2.00;1.57;;;16.80;99.90;;;;;;5050827;28;20257;-61
2023/05/15 10:41:28;;;;;;;0.80;0.80;;;17.10;99.90;;;;;;5044291;28;20194;-61
2023/05/15 10:43:57;;;;;;;0.77;0.77;;;17.80;99.90;;;;;;5053876;28;20205;-60
2023/05/15 10:46:25;;;;;;;0.60;0.60;;;18.60;99.90;;;;;;5053883;28;20272;-61
2023/05/15 10:48:52;;;;;;;0.47;0.47;;;19.30;99.90;;;;;;5054008;28;20259;-61
2023/05/15 10:51:25;;;;;;;4.93;4.63;;;19.20;99.90;;;;;;5054107;28;20578;-61
2023/05/15 10:53:53;;;;;;;0.80;0.80;;;19.20;99.90;;;;;;5053097;28;20218;-61
2023/05/15 10:56:21;;;;;;;0.70;0.67;;;18.90;99.90;;;;;;5053685;28;20244;-61
2023/05/15 10:58:49;;;;;;;0.60;0.60;;;18.90;99.90;;;;;;5053739;28;20279;-61
2023/05/15 11:01:27;;;;;;;1.93;1.40;;;18.30;99.90;;;;;;5053894;28;20256;-61
2023/05/15 11:04:06;;;;;;;0.53;0.53;;;18.30;99.90;;;;;;5053787;28;20611;-61
2023/05/15 11:06:33;;;;;;;0.80;0.80;;;18.10;99.90;;;;;;5053903;28;20208;-61
2023/05/15 11:09:34;;;;;;;0.70;0.70;;;18.10;99.90;;;;;;5052970;28;20197;-60
2023/05/15 11:12:03;;;;;;;0.87;0.87;;;17.80;99.90;;;;;;5049185;28;20213;-61
2023/05/15 11:14:32;;;;;;;3.40;1.23;;;17.60;99.90;;;;;;5053573;28;20198;-60
2023/05/15 11:17:04;;;;;;;0.80;0.80;;;17.20;99.90;;;;;;5053552;28;20201;-60
2023/05/15 11:19:40;;;;;;;0.80;0.80;;;17.10;99.90;;;;;;5052964;28;20252;-60
2023/05/15 11:22:18;;;;;;;0.70;0.70;;;16.90;99.90;;;;;;5053234;28;20750;-60
2023/05/15 11:24:53;;;;;;;1.50;1.20;;;16.70;99.90;;;;;;5053435;28;20252;-60
2023/05/15 11:27:23;;;;;;;1.10;1.10;;;16.60;99.90;;;;;;5043151;28;20202;-60
2023/05/15 11:30:10;;;;;;;1.17;1.17;;;16.60;99.90;;;;;;5050719;28;20286;-60
2023/05/15 11:32:45;;;;;;;1.00;1.00;;;16.40;99.90;;;;;;5045967;28;20564;-60
2023/05/15 11:35:14;;;;;;;1.80;1.70;;;16.40;99.90;;;;;;5053194;28;20675;-60
2023/05/15 11:37:42;;;;;;;4.27;1.67;;;16.60;99.90;;;;;;5053021;28;20233;-60
2023/05/15 11:40:14;;;;;;;1.87;1.77;;;16.90;99.90;;;;;;5053023;28;20204;-61
2023/05/15 11:42:58;;;;;;;1.53;1.53;;;17.10;99.90;;;;;;5038037;22;20306;-55
2023/05/15 11:45:25;;;;;;;1.17;1.07;;;17.20;99.90;;;;;;5012614;28;20207;-55
2023/05/15 11:47:53;;;;;;;1.30;1.30;;;17.30;99.90;;;;;;5021807;28;20191;-55
2023/05/15 11:50:21;;;;;;;1.27;1.27;;;17.10;99.90;;;;;;5033597;28;20754;-55
2023/05/15 11:52:49;;;;;;;1.77;1.67;;;17.10;99.90;;;;;;5033437;28;20222;-55
2023/05/15 11:55:18;;;;;;;1.53;1.43;;;17.20;99.90;;;;;;5033525;28;20251;-55
2023/05/15 11:57:47;;;;;;;1.43;1.40;;;17.20;99.90;;;;;;5033275;28;20222;-55
2023/05/15 12:00:15;;;;;;;1.63;1.60;;;17.20;99.90;;;;;;5010913;28;20868;-55
2023/05/15 12:02:42;;;;;;;1.73;1.57;;;17.20;99.90;;;;;;5012943;28;20843;-53
2023/05/15 12:05:09;;;;;;;1.60;1.60;;;17.10;99.90;;;;;;5013489;28;20209;-61
2023/05/15 12:07:42;;;;;;;1.90;1.80;;;16.80;99.90;;;;;;5013413;28;20207;-63
2023/05/15 12:10:11;;;;;;;1.53;1.47;;;16.80;99.90;;;;;;5013438;28;20253;-61
2023/05/15 12:12:41;;;;;;;2.10;1.17;;;16.60;99.90;;;;;;5012892;28;20227;-61
2023/05/15 12:15:11;;;;;;;1.63;1.63;;;16.70;99.90;;;;;;5011132;28;20203;-58
2023/05/15 12:17:42;;;;;;;2.00;1.90;;;16.80;99.90;;;;;;5012988;28;20257;-60
2023/05/15 12:20:11;;;;;;;1.43;1.43;;;16.80;99.90;;;;;;5010996;28;20209;-61
2023/05/15 12:22:40;;;;;;;0.93;0.93;;;16.90;99.90;;;;;;5011283;28;20269;-63
2023/05/15 12:25:10;;;;;;;0.50;0.50;;;17.00;99.90;;;;;;5012437;28;20568;-62
2023/05/15 12:27:40;;;;;;;0.90;0.90;;;17.00;99.90;;;;;;5012113;28;20243;-62
2023/05/15 12:30:09;;;;;;;0.90;0.90;;;17.20;99.90;;;;;;5010631;28;20199;-65
2023/05/15 12:32:41;;;;;;;1.40;1.17;;;17.30;99.90;;;;;;5008759;28;20223;-63
2023/05/15 12:35:10;;;;;;;1.03;1.03;;;17.40;99.90;;;;;;5011634;28;20607;-62
2023/05/15 12:37:39;;;;;;;1.60;1.10;;;17.20;99.90;;;;;;5011454;28;20219;-60
2023/05/15 12:40:09;;;;;;;1.50;1.43;;;17.20;99.90;;;;;;5009913;28;20210;-60
2023/05/15 12:42:42;;;;;;;1.30;1.30;;;17.10;99.90;;;;;;5013464;28;20226;-63
2023/05/15 12:45:14;;;;;;;1.43;1.37;;;17.10;99.90;;;;;;5010727;28;20206;-63
2023/05/15 12:47:44;;;;;;;1.20;1.20;;;17.20;99.90;;;;;;5008183;28;20199;-61
2023/05/15 12:50:15;;;;;;;1.23;1.23;;;17.30;99.90;;;;;;5010980;28;20434;-62
2023/05/15 12:52:47;;;;;;;0.73;0.73;;;17.40;99.90;;;;;;5011250;28;20604;-60
2023/05/15 12:55:17;;;;;;;1.40;1.17;;;17.10;99.90;;;;;;5011910;28;20540;-62
2023/05/15 12:57:44;;;;;;;0.80;0.80;;;16.80;99.90;;;;;;5011152;28;20219;-60